Time;durP1;ratioP1;P1;durP2;ratioP2;P2;SDS_P1;SDS_P2;PMS_P1;PMS_P2;Temp;Humidity;BMP_temperature;BMP_pressure;BME280_temperature;BME280_humidity;BME280_pressure;Samples;Min_cycle;Max_cycle;Signal;HPM_P1;HPM_P2
2024/01/20 07:35:09;;;;;;;2.07;1.87;;;-0.10;99.90;1.40;102479.00;;;;6144450;22;20259;-74
2024/01/20 07:37:47;;;;;;;3.90;2.60;;;-0.20;99.90;1.10;102444.00;;;;6143339;23;1356701;-71
2024/01/20 07:40:29;;;;;;;0.80;0.80;;;-0.10;99.90;1.70;102484.00;;;;6120382;23;20514;-71
2024/01/20 07:43:03;;;;;;;0.73;0.63;;;-0.10;99.90;1.60;102497.00;;;;6122425;23;20169;-71
2024/01/20 07:45:55;;;;;;;0.90;0.90;;;0.10;99.90;1.50;102517.00;;;;6119064;23;20489;-74
2024/01/20 07:48:29;;;;;;;0.40;0.40;;;0.10;99.90;2.00;102456.00;;;;6115178;23;20168;-72
2024/01/20 07:51:03;;;;;;;2.07;1.97;;;0.20;99.90;2.40;102512.00;;;;6121858;23;20176;-71
2024/01/20 07:53:43;;;;;;;1.73;1.47;;;0.40;99.90;1.90;102514.00;;;;6097097;23;20195;-71
2024/01/20 07:56:13;;;;;;;0.87;0.87;;;0.30;99.90;2.50;102503.00;;;;6096716;23;20171;-72
2024/01/20 07:58:50;;;;;;;2.93;1.43;;;0.40;99.90;1.90;102512.00;;;;6097709;23;20240;-71
2024/01/20 08:01:33;;;;;;;1.37;0.87;;;0.40;99.90;1.00;102512.00;;;;6096795;23;20152;-72
2024/01/20 08:04:11;;;;;;;0.40;0.40;;;0.00;99.90;2.30;102520.00;;;;6121549;23;20166;-71
2024/01/20 08:06:45;;;;;;;4.50;2.83;;;0.20;99.90;1.70;102516.00;;;;6095187;23;20555;-71
2024/01/20 08:09:17;;;;;;;0.53;0.53;;;0.20;99.90;1.90;102472.00;;;;6120665;23;20564;-71
2024/01/20 08:11:51;;;;;;;1.10;1.07;;;0.20;99.90;2.60;102508.00;;;;6120519;23;20144;-72
2024/01/20 08:14:26;;;;;;;1.53;1.33;;;0.40;99.90;2.00;102510.00;;;;6120325;23;20136;-71
2024/01/20 08:17:00;;;;;;;2.50;1.53;;;0.30;99.90;1.50;102519.00;;;;6121291;23;20565;-72
2024/01/20 08:19:25;;;;;;;2.20;1.33;;;0.10;99.90;0.90;102511.00;;;;6120934;23;20278;-71
2024/01/20 08:22:09;;;;;;;0.60;0.60;;;-0.10;99.90;1.90;102520.00;;;;6119466;23;20616;-72
2024/01/20 08:24:43;;;;;;;3.73;3.43;;;-0.10;99.90;0.80;102490.00;;;;6096557;23;20218;-72
2024/01/20 08:27:18;;;;;;;4.10;1.60;;;-0.10;99.90;1.10;102528.00;;;;6120417;23;20156;-72
2024/01/20 08:29:52;;;;;;;2.03;1.93;;;-0.30;99.90;0.90;102507.00;;;;6120673;23;20147;-72
2024/01/20 08:32:18;;;;;;;1.50;1.40;;;-0.20;99.90;1.30;102520.00;;;;6096754;23;20584;-72
2024/01/20 08:34:51;;;;;;;0.80;0.80;;;-0.20;99.90;1.40;102520.00;;;;6122123;23;20167;-72
2024/01/20 08:37:25;;;;;;;0.97;0.80;;;-0.10;99.90;2.10;102530.00;;;;6121665;23;20168;-72
2024/01/20 08:39:51;;;;;;;4.70;3.43;;;0.20;99.90;1.00;102530.00;;;;6096235;23;20541;-72
2024/01/20 08:42:28;;;;;;;2.30;2.10;;;0.00;99.90;1.50;102526.00;;;;6120199;23;20184;-71
2024/01/20 08:45:08;;;;;;;3.33;3.03;;;0.00;99.90;0.70;102535.00;;;;6096781;23;20237;-72
2024/01/20 08:47:37;;;;;;;0.70;0.70;;;-0.20;99.90;0.80;102527.00;;;;6095626;23;20223;-72
2024/01/20 08:50:09;;;;;;;1.17;1.10;;;-0.30;99.90;0.80;102520.00;;;;6097061;23;20159;-72
2024/01/20 08:52:55;;;;;;;0.70;0.60;;;-0.20;99.90;0.80;102479.00;;;;6120856;23;20472;-71
2024/01/20 08:55:29;;;;;;;6.50;5.60;;;-0.40;99.90;0.50;102518.00;;;;6096332;23;20214;-69
2024/01/20 08:57:56;;;;;;;1.50;1.43;;;-0.30;99.90;1.40;102521.00;;;;6120026;23;20219;-79
2024/01/20 09:00:28;;;;;;;3.67;2.93;;;-0.20;99.90;0.90;102529.00;;;;6120649;23;20144;-77
2024/01/20 09:02:54;;;;;;;4.83;1.87;;;-0.10;99.90;1.50;102532.00;;;;6095775;23;20191;-74
2024/01/20 09:05:20;;;;;;;0.80;0.70;;;0.00;99.90;1.60;102532.00;;;;6120647;23;20585;-77
2024/01/20 09:07:49;;;;;;;1.83;1.73;;;0.10;99.90;1.30;102466.00;;;;6120504;23;20187;-74
2024/01/20 09:10:23;;;;;;;3.37;1.47;;;0.10;99.90;1.80;102544.00;;;;6097097;23;20186;-78
2024/01/20 09:12:49;;;;;;;4.80;4.40;;;0.30;99.90;1.40;102543.00;;;;6120562;23;20535;-78
2024/01/20 09:15:20;;;;;;;0.67;0.67;;;0.10;99.90;0.80;102540.00;;;;6121632;23;20207;-78
2024/01/20 09:18:26;;;;;;;0.73;0.73;;;0.00;99.90;2.70;102541.00;;;;6121935;23;20579;-79
2024/01/20 09:21:57;;;;;;;14.93;5.33;;;0.30;99.90;1.80;102551.00;;;;6096022;23;20167;-80
2024/01/20 09:24:43;;;;;;;2.23;2.03;;;0.40;99.90;1.40;102532.00;;;;6121060;23;20160;-79
2024/01/20 09:27:46;;;;;;;1.80;1.70;;;0.30;99.90;1.20;102563.00;;;;6095986;23;20152;-80
2024/01/20 09:30:49;;;;;;;1.57;1.37;;;0.10;99.90;0.80;102553.00;;;;6120883;23;20251;-80
2024/01/20 09:33:50;;;;;;;1.87;1.77;;;-0.20;99.90;0.90;102545.00;;;;6119761;23;20243;-79
2024/01/20 09:37:18;;;;;;;4.27;4.07;;;-0.20;99.90;1.30;102542.00;;;;6120593;23;20640;-79
2024/01/20 09:40:35;;;;;;;0.40;0.40;;;-0.20;99.90;1.90;102547.00;;;;6107205;23;20199;-80
2024/01/20 09:44:08;;;;;;;8.70;4.60;;;0.00;99.90;1.20;102523.00;;;;6116067;23;20183;-80
2024/01/20 09:47:25;;;;;;;1.43;1.33;;;0.00;99.90;1.40;102552.00;;;;6120922;23;20243;-79
2024/01/20 09:49:59;;;;;;;2.83;2.13;;;0.00;99.90;1.20;102545.00;;;;6097317;23;20165;-80
2024/01/20 09:52:31;;;;;;;1.90;1.73;;;0.00;99.90;1.20;102534.00;;;;6121150;23;20153;-79
2024/01/20 09:55:23;;;;;;;3.33;3.13;;;0.00;99.90;1.00;102535.00;;;;6120428;23;20150;-81
2024/01/20 09:57:50;;;;;;;2.47;2.20;;;0.00;99.90;0.80;102539.00;;;;6120948;23;20198;-80
2024/01/20 10:00:24;;;;;;;3.80;1.00;;;-0.10;99.90;0.90;102546.00;;;;6120323;23;20276;-80
2024/01/20 10:02:56;;;;;;;8.27;4.40;;;-0.10;99.90;1.30;102541.00;;;;6120669;23;20175;-79
2024/01/20 10:05:30;;;;;;;6.93;4.77;;;0.00;99.90;0.90;102557.00;;;;6121298;23;20461;-79
2024/01/20 10:08:14;;;;;;;4.57;2.87;;;-0.10;99.90;1.50;102502.00;;;;6121109;23;20227;-80
2024/01/20 10:11:21;;;;;;;3.83;1.20;;;0.00;99.90;0.80;102557.00;;;;6122475;23;20179;-79
2024/01/20 10:13:52;;;;;;;7.27;4.60;;;-0.10;99.90;0.30;102554.00;;;;6121109;23;20234;-79
2024/01/20 10:16:20;;;;;;;6.57;4.27;;;-0.30;99.90;1.20;102538.00;;;;6122316;23;20194;-80
2024/01/20 10:18:49;;;;;;;5.70;2.20;;;-0.10;99.90;0.90;102562.00;;;;6120754;22;20160;-79
2024/01/20 10:44:06;;;;;;;4.33;2.57;;;-0.90;99.90;0.90;102566.00;;;;6230456;22;1360322;-77
2024/01/20 10:46:41;;;;;;;3.33;2.17;;;-0.30;99.90;0.60;102539.00;;;;6257157;22;20267;-78
2024/01/20 10:49:20;;;;;;;3.87;3.57;;;-0.30;99.90;0.80;102546.00;;;;6256904;22;20144;-77
2024/01/20 10:51:51;;;;;;;2.37;2.17;;;-0.30;99.90;0.70;102548.00;;;;6258356;22;20215;-76
2024/01/20 10:54:17;;;;;;;11.97;8.27;;;-0.30;99.90;0.60;102527.00;;;;6231625;22;20485;-77
2024/01/20 10:56:43;;;;;;;0.83;0.83;;;-0.30;99.90;1.10;102499.00;;;;6257866;22;20137;-77
2024/01/20 10:59:22;;;;;;;2.73;2.20;;;-0.20;99.90;0.80;102544.00;;;;6257453;22;20144;-77
2024/01/20 11:01:49;;;;;;;3.30;3.10;;;-0.30;99.90;0.80;102528.00;;;;6233366;22;20184;-81
2024/01/20 11:04:23;;;;;;;3.63;1.47;;;-0.30;99.90;1.40;102521.00;;;;6258192;22;20148;-80
2024/01/20 11:06:54;;;;;;;3.97;3.70;;;-0.10;99.90;0.80;102507.00;;;;6232478;22;20611;-80
2024/01/20 11:09:23;;;;;;;1.97;1.87;;;-0.20;99.90;1.30;102541.00;;;;6258057;22;20223;-80
2024/01/20 11:12:21;;;;;;;1.27;1.20;;;-0.20;99.90;0.70;102544.00;;;;6258204;22;20172;-80
2024/01/20 11:14:55;;;;;;;1.23;1.17;;;-0.30;99.90;1.30;102531.00;;;;6257415;22;20199;-82
2024/01/20 11:17:22;;;;;;;3.23;2.93;;;-0.20;99.90;1.90;102541.00;;;;6231963;22;20145;-74
2024/01/20 11:19:50;;;;;;;0.90;0.90;;;0.00;99.90;1.90;102534.00;;;;6257850;22;20143;-76
2024/01/20 11:22:33;;;;;;;0.97;0.97;;;0.30;99.90;1.40;102545.00;;;;6231607;22;20485;-76
2024/01/20 11:25:13;;;;;;;2.60;2.40;;;0.10;99.90;1.10;102527.00;;;;6231773;22;20160;-76
2024/01/20 11:27:50;;;;;;;0.60;0.60;;;0.10;99.90;1.60;102533.00;;;;6257386;22;20148;-76
2024/01/20 11:30:29;;;;;;;11.50;7.33;;;0.10;99.90;1.40;102530.00;;;;6232245;22;20156;-76
2024/01/20 11:32:57;;;;;;;4.43;2.27;;;0.20;99.90;1.50;102538.00;;;;6284908;22;20229;-75
2024/01/20 11:35:23;;;;;;;2.53;2.20;;;0.20;99.90;1.40;102460.00;;;;6257357;22;20224;-75
2024/01/20 11:37:50;;;;;;;5.63;2.97;;;0.10;99.90;1.60;102525.00;;;;6257087;22;20224;-76
2024/01/20 11:40:16;;;;;;;4.90;3.27;;;0.20;99.90;1.70;102547.00;;;;6257549;22;20167;-75
2024/01/20 11:43:06;;;;;;;1.90;1.80;;;0.30;99.90;2.20;102529.00;;;;6241504;23;20188;-75
2024/01/20 11:45:32;;;;;;;4.87;3.40;;;0.50;99.90;1.50;102551.00;;;;6246232;23;20683;-75
2024/01/20 11:47:59;;;;;;;5.03;2.90;;;0.40;99.90;2.80;102549.00;;;;6220216;23;20149;-75
2024/01/20 11:50:25;;;;;;;3.83;2.73;;;0.80;99.90;2.80;102563.00;;;;6195217;23;20181;-75
2024/01/20 11:53:12;;;;;;;2.00;1.07;;;1.10;99.90;3.00;102548.00;;;;6247348;23;20150;-75
2024/01/20 11:55:41;;;;;;;4.30;1.93;;;1.10;99.90;3.70;102567.00;;;;6193658;23;20231;-76
2024/01/20 11:58:07;;;;;;;11.50;4.80;;;1.50;99.90;3.20;102570.00;;;;6195653;23;20164;-75
2024/01/20 12:00:41;;;;;;;1.40;0.73;;;1.70;99.90;3.70;102574.00;;;;6246777;23;20220;-75
2024/01/20 12:03:08;;;;;;;5.90;4.80;;;1.80;99.90;3.30;102579.00;;;;6195124;23;20172;-75
2024/01/20 12:05:36;;;;;;;0.90;0.90;;;1.70;99.90;2.80;102518.00;;;;6195255;23;20219;-74
2024/01/20 12:08:08;;;;;;;1.90;1.77;;;1.50;99.90;2.60;102562.00;;;;6218932;23;20574;-74
2024/01/20 12:10:37;;;;;;;7.33;6.30;;;1.30;99.90;2.30;102565.00;;;;6194996;23;20150;-74
2024/01/20 12:13:04;;;;;;;3.80;3.30;;;1.30;99.90;2.20;102563.00;;;;6194109;23;20166;-75
2024/01/20 12:15:37;;;;;;;4.00;3.23;;;1.00;99.90;2.70;102573.00;;;;6219808;23;20209;-74
2024/01/20 12:18:04;;;;;;;2.90;1.90;;;1.00;99.90;2.80;102567.00;;;;6195022;23;20154;-74
2024/01/20 12:20:30;;;;;;;3.03;1.80;;;1.10;99.90;2.60;102566.00;;;;6194158;23;20165;-75
2024/01/20 12:23:19;;;;;;;3.23;2.93;;;1.20;99.90;3.10;102559.00;;;;6218871;23;20179;-75
2024/01/20 12:26:12;;;;;;;6.37;4.10;;;1.30;99.90;2.40;102556.00;;;;6193067;23;20249;-75
2024/01/20 12:28:56;;;;;;;4.13;3.73;;;1.20;99.90;3.30;102568.00;;;;6246116;23;20148;-75
2024/01/20 12:31:46;;;;;;;2.60;2.50;;;1.30;99.90;2.50;102548.00;;;;6219882;23;20172;-74
2024/01/20 12:34:32;;;;;;;5.60;2.70;;;1.10;99.90;2.90;102554.00;;;;6194189;23;20579;-75
2024/01/20 12:37:36;;;;;;;5.10;3.17;;;1.20;99.90;3.90;102536.00;;;;6219380;23;20158;-75
2024/01/20 12:40:24;;;;;;;2.20;1.87;;;1.40;99.90;4.30;102543.00;;;;6194452;23;20168;-75
2024/01/20 12:43:27;;;;;;;3.60;2.67;;;2.00;99.90;3.40;102550.00;;;;6233506;22;20188;-75
2024/01/20 12:46:16;;;;;;;4.73;2.13;;;1.90;99.90;4.00;102542.00;;;;6224182;22;20152;-75
2024/01/20 12:49:07;;;;;;;1.37;1.23;;;2.00;99.90;3.60;102528.00;;;;6249727;22;20589;-75
2024/01/20 12:52:06;;;;;;;5.00;3.97;;;1.70;99.90;4.00;102522.00;;;;6225262;22;20192;-75
2024/01/20 12:54:49;;;;;;;7.27;3.97;;;2.00;99.90;3.40;102520.00;;;;6225752;22;20581;-79
2024/01/20 12:57:35;;;;;;;4.13;3.17;;;1.70;99.90;3.40;102526.00;;;;6249094;22;20153;-80
2024/01/20 13:00:12;;;;;;;11.10;2.20;;;1.80;99.90;3.20;102498.00;;;;6224588;22;20153;-79
2024/01/20 13:03:00;;;;;;;2.70;2.50;;;1.60;99.90;3.70;102461.00;;;;6250194;22;20540;-79
2024/01/20 13:06:02;;;;;;;1.70;1.70;;;1.70;99.90;3.60;102505.00;;;;6275680;22;20148;-79
2024/01/20 13:09:10;;;;;;;3.70;2.40;;;1.60;99.90;3.30;102495.00;;;;6247471;22;20156;-79
2024/01/20 13:12:16;;;;;;;0.93;0.93;;;1.60;99.90;3.50;102495.00;;;;6250160;22;20247;-79
2024/01/20 13:15:17;;;;;;;2.90;1.87;;;1.50;99.90;3.40;102501.00;;;;6224077;22;20160;-79
2024/01/20 13:18:21;;;;;;;1.00;1.00;;;1.70;99.90;3.90;102488.00;;;;6224498;22;20766;-79
2024/01/20 13:21:25;;;;;;;6.63;3.90;;;1.70;99.90;3.60;102493.00;;;;6223631;22;20160;-82
2024/01/20 13:24:14;;;;;;;0.57;0.57;;;1.70;99.90;3.70;102488.00;;;;6223669;22;20169;-79
2024/01/20 13:27:09;;;;;;;3.20;1.97;;;1.70;99.90;3.10;102487.00;;;;6227412;22;20160;-79
2024/01/20 13:29:57;;;;;;;1.73;1.73;;;1.60;99.90;3.40;102475.00;;;;6224563;22;20160;-79
2024/01/20 13:32:23;;;;;;;2.30;1.83;;;1.60;99.90;3.10;102469.00;;;;6224620;22;20164;-79
2024/01/20 13:35:14;;;;;;;0.50;0.50;;;1.60;99.90;4.00;102442.00;;;;6274461;22;20227;-80
2024/01/20 13:38:00;;;;;;;2.13;1.17;;;1.70;99.90;3.90;102474.00;;;;6246317;22;20168;-79
2024/01/20 13:40:29;;;;;;;0.20;0.20;;;2.00;99.90;4.40;102485.00;;;;6246345;22;20533;-82
2024/01/20 13:43:30;;;;;;;1.17;1.07;;;2.10;99.90;4.00;102489.00;;;;6206143;23;20196;-78
2024/01/20 13:46:14;;;;;;;6.27;3.17;;;2.30;99.90;4.00;102493.00;;;;6194474;23;20211;-77
2024/01/20 13:49:03;;;;;;;2.53;1.40;;;2.10;99.90;3.60;102495.00;;;;6217414;23;20220;-77
2024/01/20 13:52:13;;;;;;;3.20;2.20;;;1.90;99.90;3.50;102463.00;;;;6194022;23;20581;-77
2024/01/20 13:55:15;;;;;;;2.83;2.43;;;2.00;99.90;4.00;102480.00;;;;6193949;23;20172;-78
2024/01/20 13:58:15;;;;;;;1.83;1.67;;;2.00;99.90;3.90;102490.00;;;;6194341;23;20255;-77
2024/01/20 14:01:06;;;;;;;1.83;1.63;;;1.90;99.90;4.40;102447.00;;;;6194413;23;20522;-79
2024/01/20 14:04:10;;;;;;;8.20;3.50;;;2.10;99.90;3.30;102484.00;;;;6218678;23;20141;-78
2024/01/20 14:07:03;;;;;;;4.60;2.83;;;1.90;99.90;3.60;102449.00;;;;6193148;23;20158;-78
2024/01/20 14:09:49;;;;;;;0.67;0.67;;;1.80;99.90;4.20;102397.00;;;;6193208;23;20177;-77
2024/01/20 14:12:56;;;;;;;2.30;2.13;;;1.90;99.90;4.10;102499.00;;;;6194423;23;20477;-77
2024/01/20 14:15:38;;;;;;;0.73;0.73;;;2.20;99.90;4.80;102497.00;;;;6219082;23;20219;-77
2024/01/20 14:18:29;;;;;;;8.03;4.27;;;2.30;99.90;3.40;102497.00;;;;6195452;23;20488;-77
2024/01/20 14:21:12;;;;;;;1.97;1.87;;;2.10;99.90;3.80;102484.00;;;;6218829;23;20142;-77
2024/01/20 14:23:59;;;;;;;1.50;1.27;;;1.80;99.90;3.70;102483.00;;;;6196491;23;20216;-73
2024/01/20 14:26:50;;;;;;;2.53;1.57;;;1.90;99.90;3.10;102483.00;;;;6193409;23;20284;-73
2024/01/20 14:29:45;;;;;;;2.43;1.80;;;1.60;99.90;3.50;102476.00;;;;6193521;23;20161;-69
2024/01/20 14:32:27;;;;;;;1.47;1.37;;;1.70;99.90;3.20;102474.00;;;;6198347;23;20549;-69
2024/01/20 14:35:37;;;;;;;1.47;1.27;;;1.60;99.90;3.50;102476.00;;;;6218877;23;20172;-69
2024/01/20 14:38:34;;;;;;;4.50;4.07;;;1.70;99.90;3.70;102479.00;;;;6200771;23;20149;-69
2024/01/20 14:41:19;;;;;;;3.47;2.47;;;1.70;99.90;3.40;102478.00;;;;6223710;23;20161;-69
2024/01/20 14:44:07;;;;;;;2.37;2.17;;;1.70;99.90;3.30;102457.00;;;;6220326;22;20271;-70
2024/01/20 14:47:09;;;;;;;1.63;1.37;;;1.60;99.90;3.40;102463.00;;;;6249060;22;20664;-69
2024/01/20 14:50:11;;;;;;;1.40;1.40;;;1.70;99.90;3.90;102504.00;;;;6275338;22;20580;-69
2024/01/20 14:53:12;;;;;;;0.50;0.50;;;1.70;99.90;3.70;102497.00;;;;6223195;22;20172;-70
2024/01/20 14:56:09;;;;;;;4.57;2.07;;;1.90;99.90;3.60;102491.00;;;;6223590;22;20161;-69
2024/01/20 14:59:12;;;;;;;2.37;2.17;;;1.70;99.90;3.30;102497.00;;;;6224447;22;20157;-69
2024/01/20 15:02:23;;;;;;;6.87;3.80;;;1.60;99.90;3.00;102496.00;;;;6248892;22;20263;-69
2024/01/20 15:05:30;;;;;;;0.70;0.70;;;1.40;99.90;3.20;102493.00;;;;6249666;22;20148;-69
2024/01/20 15:08:36;;;;;;;3.60;2.47;;;1.40;99.90;2.70;102493.00;;;;6276411;22;20137;-69
2024/01/20 15:12:03;;;;;;;2.27;1.43;;;1.40;99.90;3.30;102493.00;;;;6202041;22;20183;-69
2024/01/20 15:14:51;;;;;;;0.83;0.67;;;1.40;99.90;3.20;102489.00;;;;6274281;22;20664;-69
2024/01/20 15:17:57;;;;;;;3.77;2.43;;;1.50;99.90;2.80;102493.00;;;;6250187;22;20141;-69
2024/01/20 15:21:16;;;;;;;3.20;1.37;;;1.50;99.90;3.10;102479.00;;;;6228850;22;20227;-69
2024/01/20 15:24:02;;;;;;;1.63;1.53;;;1.40;99.90;3.00;102479.00;;;;6225552;22;20188;-69
2024/01/20 15:27:12;;;;;;;1.60;1.50;;;1.40;99.90;2.90;102492.00;;;;6250621;22;20165;-69
2024/01/20 15:30:16;;;;;;;0.40;0.40;;;1.30;99.90;3.10;102480.00;;;;6278028;22;20220;-69
2024/01/20 15:33:25;;;;;;;1.80;0.70;;;1.30;99.90;3.20;102489.00;;;;6225332;22;20175;-69
2024/01/20 15:36:13;;;;;;;1.03;1.03;;;1.40;99.90;3.60;102486.00;;;;6250961;22;20163;-70
2024/01/20 15:39:17;;;;;;;1.50;1.40;;;1.40;99.90;3.20;102461.00;;;;6225692;22;20161;-71
2024/01/20 15:41:45;;;;;;;2.10;2.00;;;1.50;99.90;3.40;102499.00;;;;6278113;22;20189;-68
2024/01/20 15:44:19;;;;;;;1.27;1.00;;;1.50;99.90;3.20;102508.00;;;;6225128;23;20601;-68
2024/01/20 15:46:58;;;;;;;1.50;1.13;;;1.40;99.90;3.20;102508.00;;;;6220313;23;20592;-68
2024/01/20 15:49:46;;;;;;;2.13;2.00;;;1.40;99.90;3.60;102502.00;;;;6220656;23;20138;-68
2024/01/20 15:52:25;;;;;;;2.50;1.77;;;1.50;99.90;3.40;102509.00;;;;6220136;23;20162;-68
2024/01/20 15:55:11;;;;;;;0.60;0.60;;;1.40;99.90;3.60;102521.00;;;;6194828;23;20168;-68
2024/01/20 15:57:57;;;;;;;3.93;1.70;;;1.40;99.90;3.50;102513.00;;;;6172759;23;20208;-68
2024/01/20 16:00:31;;;;;;;0.23;0.23;;;1.30;99.90;3.70;102514.00;;;;6218514;23;20165;-67
2024/01/20 16:03:03;;;;;;;2.47;2.00;;;1.40;99.90;3.70;102475.00;;;;6220074;23;20169;-67
2024/01/20 16:05:49;;;;;;;0.97;0.97;;;1.40;99.90;3.30;102516.00;;;;6220923;23;20148;-67
2024/01/20 16:08:24;;;;;;;2.33;2.10;;;1.30;99.90;3.00;102483.00;;;;6219661;23;20173;-66
2024/01/20 16:10:53;;;;;;;0.20;0.20;;;1.30;99.90;2.90;102510.00;;;;6220362;23;20453;-67
2024/01/20 16:13:19;;;;;;;1.13;1.13;;;1.10;99.90;3.10;102460.00;;;;6195125;23;20481;-67
2024/01/20 16:15:45;;;;;;;0.70;0.70;;;1.10;99.90;3.50;102475.00;;;;6195187;23;20157;-68
2024/01/20 16:18:11;;;;;;;1.53;1.53;;;1.20;99.90;3.30;102502.00;;;;6220038;23;20134;-68
2024/01/20 16:20:39;;;;;;;1.23;1.23;;;1.20;99.90;3.10;102495.00;;;;6219372;23;20165;-68
2024/01/20 16:23:05;;;;;;;2.77;1.83;;;1.10;99.90;2.80;102495.00;;;;6219927;23;20192;-67
2024/01/20 16:25:32;;;;;;;2.47;1.77;;;1.10;99.90;3.00;102454.00;;;;6220294;23;20145;-68
2024/01/20 16:28:20;;;;;;;3.83;1.50;;;1.10;99.90;3.00;102484.00;;;;6195045;23;20483;-68
2024/01/20 16:30:46;;;;;;;0.60;0.60;;;1.10;99.90;2.40;102481.00;;;;6195077;23;20162;-68
2024/01/20 16:33:13;;;;;;;2.87;2.63;;;0.90;99.90;2.50;102436.00;;;;6220391;23;20161;-68
2024/01/20 16:35:38;;;;;;;2.63;1.70;;;0.90;99.90;2.90;102478.00;;;;6216663;23;20227;-67
2024/01/20 16:38:05;;;;;;;0.93;0.87;;;1.00;99.90;2.80;102473.00;;;;6219471;23;20150;-68
2024/01/20 16:40:32;;;;;;;2.10;1.80;;;1.10;99.90;2.80;102465.00;;;;6219612;23;20168;-67
2024/01/20 16:42:57;;;;;;;2.57;2.37;;;1.00;99.90;3.00;102464.00;;;;6203200;22;20193;-68
2024/01/20 16:45:23;;;;;;;3.40;2.47;;;1.00;99.90;2.80;102455.00;;;;6249925;22;20163;-68
2024/01/20 16:47:49;;;;;;;4.53;2.67;;;1.00;99.90;2.50;102465.00;;;;6249583;22;20562;-67
2024/01/20 16:50:15;;;;;;;1.47;1.37;;;0.90;99.90;2.30;102457.00;;;;6276598;22;20174;-68
2024/01/20 16:52:44;;;;;;;2.67;2.47;;;0.80;99.90;2.40;102451.00;;;;6249179;22;20160;-67
2024/01/20 16:55:10;;;;;;;4.27;2.03;;;0.70;99.90;2.30;102448.00;;;;6224158;22;20161;-67
2024/01/20 16:57:35;;;;;;;6.07;4.70;;;0.70;99.90;2.20;102445.00;;;;6223286;22;20187;-67
2024/01/20 17:00:02;;;;;;;2.47;2.33;;;0.70;99.90;2.50;102438.00;;;;6249795;22;20545;-67
2024/01/20 17:02:27;;;;;;;5.10;2.73;;;0.70;99.90;2.40;102438.00;;;;6249383;22;20177;-67
2024/01/20 17:04:53;;;;;;;2.43;1.90;;;0.70;99.90;2.40;102434.00;;;;6249941;22;20247;-67
2024/01/20 17:07:19;;;;;;;1.73;1.63;;;0.70;99.90;2.80;102418.00;;;;6247868;22;20401;-68
2024/01/20 17:09:45;;;;;;;3.03;2.77;;;0.70;99.90;2.30;102428.00;;;;6223077;22;20152;-67
2024/01/20 17:12:16;;;;;;;2.67;2.30;;;0.70;99.90;2.20;102418.00;;;;6250203;22;20264;-67
2024/01/20 17:14:42;;;;;;;1.80;1.70;;;0.60;99.90;2.10;102399.00;;;;6250248;22;20149;-68
2024/01/20 17:17:08;;;;;;;1.80;1.43;;;0.60;99.90;2.70;102403.00;;;;6249254;22;20624;-67
2024/01/20 17:19:39;;;;;;;1.17;1.17;;;0.60;99.90;2.30;102384.00;;;;6223776;22;20160;-68
2024/01/20 17:22:05;;;;;;;3.50;2.77;;;0.60;99.90;2.30;102409.00;;;;6249272;22;20164;-68
2024/01/20 17:24:33;;;;;;;3.47;3.17;;;0.60;99.90;2.50;102409.00;;;;6223775;22;20247;-68
2024/01/20 17:27:00;;;;;;;2.60;2.40;;;0.60;99.90;2.10;102367.00;;;;6248412;22;20986;-68
2024/01/20 17:29:28;;;;;;;1.07;1.03;;;0.60;99.90;2.20;102414.00;;;;6222912;22;20153;-68
2024/01/20 17:32:00;;;;;;;1.43;0.67;;;0.40;99.90;2.60;102420.00;;;;6249467;22;20588;-68
2024/01/20 17:34:28;;;;;;;0.20;0.20;;;0.50;99.90;2.30;102398.00;;;;6250740;22;20229;-68
2024/01/20 17:36:55;;;;;;;0.20;0.20;;;0.50;99.90;2.40;102408.00;;;;6250217;22;20224;-68
2024/01/20 17:39:22;;;;;;;3.70;3.37;;;0.50;99.90;2.30;102420.00;;;;6199661;22;20157;-67
2024/01/20 17:41:51;;;;;;;2.30;1.33;;;0.50;99.90;2.10;102413.00;;;;6223397;22;20251;-68
2024/01/20 17:44:18;;;;;;;0.60;0.60;;;0.40;99.90;2.10;102411.00;;;;6220670;23;20157;-69
2024/01/20 17:46:47;;;;;;;6.60;2.00;;;0.30;99.90;1.90;102372.00;;;;6217325;23;20145;-67
2024/01/20 17:49:13;;;;;;;0.77;0.77;;;0.20;99.90;2.30;102405.00;;;;6217390;23;20153;-68
2024/01/20 17:51:40;;;;;;;1.00;1.00;;;0.30;99.90;2.70;102404.00;;;;6193258;23;20157;-66
2024/01/20 17:54:06;;;;;;;1.47;1.37;;;0.40;99.90;2.30;102397.00;;;;6246565;23;20164;-66
2024/01/20 17:56:32;;;;;;;3.20;1.93;;;0.40;99.90;2.40;102398.00;;;;6219232;23;20149;-66
2024/01/20 17:58:58;;;;;;;0.80;0.80;;;0.50;99.90;2.20;102408.00;;;;6194331;23;20231;-66
2024/01/20 18:01:24;;;;;;;0.43;0.43;;;0.40;99.90;2.00;102400.00;;;;6219292;23;20181;-66
2024/01/20 18:03:50;;;;;;;3.63;3.43;;;0.30;99.90;2.10;102405.00;;;;6193836;23;20165;-66
2024/01/20 18:06:21;;;;;;;4.63;1.90;;;0.30;99.90;2.10;102361.00;;;;6218987;23;20154;-66
2024/01/20 18:08:47;;;;;;;0.23;0.23;;;0.30;99.90;2.60;102407.00;;;;6245074;23;20161;-66
2024/01/20 18:11:15;;;;;;;0.53;0.53;;;0.40;99.90;2.70;102410.00;;;;6219689;23;20562;-66
2024/01/20 18:13:44;;;;;;;3.80;1.60;;;0.50;99.90;2.10;102407.00;;;;6194484;23;20478;-66
2024/01/20 18:16:10;;;;;;;2.07;1.93;;;0.30;99.90;2.10;102401.00;;;;6194196;23;20459;-66
2024/01/20 18:18:36;;;;;;;1.13;1.13;;;0.40;99.90;2.50;102395.00;;;;6194477;23;20231;-66
2024/01/20 18:21:03;;;;;;;0.80;0.80;;;0.40;99.90;2.20;102376.00;;;;6245099;23;20215;-66
2024/01/20 18:23:28;;;;;;;1.57;1.43;;;0.40;99.90;2.00;102362.00;;;;6194311;23;20193;-66
2024/01/20 18:25:54;;;;;;;3.43;3.03;;;0.20;99.90;2.00;102387.00;;;;6193325;23;20620;-66
2024/01/20 18:28:20;;;;;;;5.70;2.20;;;0.20;99.90;2.00;102382.00;;;;6219118;23;20563;-66
2024/01/20 18:30:46;;;;;;;1.47;1.33;;;0.20;99.90;2.20;102393.00;;;;6245768;23;20138;-66
2024/01/20 18:33:12;;;;;;;1.13;0.90;;;0.20;99.90;2.20;102389.00;;;;6219111;23;20160;-66
2024/01/20 18:35:38;;;;;;;2.73;2.60;;;0.30;99.90;1.90;102368.00;;;;6218957;23;20152;-66
2024/01/20 18:38:04;;;;;;;1.60;0.87;;;0.30;99.90;2.20;102358.00;;;;6218864;23;20232;-66
2024/01/20 18:40:46;;;;;;;4.07;1.20;;;0.30;99.90;2.10;102321.00;;;;6218670;23;20578;-66
2024/01/20 18:43:11;;;;;;;2.93;2.67;;;0.30;99.90;2.10;102346.00;;;;6206562;22;20188;-66
2024/01/20 18:45:37;;;;;;;5.00;2.77;;;0.30;99.90;3.10;102351.00;;;;6224035;22;20581;-66
2024/01/20 18:48:04;;;;;;;1.03;0.90;;;0.50;99.90;2.90;102322.00;;;;6276397;22;20138;-66
2024/01/20 18:50:30;;;;;;;1.47;1.37;;;0.60;99.90;3.00;102356.00;;;;6276768;22;20149;-66
2024/01/20 18:52:56;;;;;;;2.20;2.10;;;0.80;99.90;2.40;102361.00;;;;6223237;22;20482;-66
2024/01/20 18:55:22;;;;;;;0.60;0.60;;;0.60;99.90;3.20;102357.00;;;;6226138;22;20485;-66
2024/01/20 18:58:05;;;;;;;1.13;1.13;;;0.80;99.90;3.00;102348.00;;;;6226019;22;20198;-66
2024/01/20 19:00:40;;;;;;;3.60;2.83;;;0.80;99.90;2.60;102361.00;;;;6251647;22;20149;-66
2024/01/20 19:03:07;;;;;;;2.20;2.10;;;0.70;99.90;2.30;102350.00;;;;6250179;22;20191;-67
2024/01/20 19:05:33;;;;;;;5.13;4.00;;;0.60;99.90;2.50;102360.00;;;;6251492;22;20148;-66
2024/01/20 19:07:59;;;;;;;1.53;1.43;;;0.60;99.90;2.90;102362.00;;;;6251828;22;20502;-67
2024/01/20 19:10:27;;;;;;;0.43;0.43;;;0.70;99.90;3.10;102368.00;;;;6278630;22;20144;-67
2024/01/20 19:12:53;;;;;;;3.67;3.40;;;0.80;99.90;2.70;102348.00;;;;6251940;22;20145;-66
2024/01/20 19:15:19;;;;;;;1.00;1.00;;;0.80;99.90;3.10;102347.00;;;;6250493;22;20153;-67
2024/01/20 19:17:49;;;;;;;2.20;2.07;;;0.80;99.90;2.30;102335.00;;;;6226275;22;20153;-67
2024/01/20 19:20:23;;;;;;;3.03;2.10;;;0.60;99.90;2.30;102326.00;;;;6251597;22;20232;-66
2024/01/20 19:22:53;;;;;;;4.20;2.27;;;0.50;99.90;2.30;102318.00;;;;6252058;22;20191;-66
2024/01/20 19:25:37;;;;;;;0.93;0.93;;;0.50;99.90;2.50;102283.00;;;;6247270;22;20171;-67
2024/01/20 19:28:05;;;;;;;0.30;0.30;;;0.50;99.90;2.60;102327.00;;;;6224083;22;20165;-66
2024/01/20 19:30:31;;;;;;;2.00;1.80;;;0.50;99.90;2.60;102319.00;;;;6250684;22;20137;-67
2024/01/20 19:33:17;;;;;;;1.33;1.23;;;0.60;99.90;2.60;102302.00;;;;6251122;22;20167;-67
2024/01/20 19:35:45;;;;;;;1.77;1.67;;;0.60;99.90;2.80;102323.00;;;;6277807;22;20462;-66
2024/01/20 19:38:36;;;;;;;1.40;1.30;;;0.60;99.90;1.90;102331.00;;;;6251002;22;20239;-66
2024/01/20 19:41:03;;;;;;;5.23;4.43;;;0.50;99.90;2.00;102319.00;;;;6250830;22;20206;-66
2024/01/20 19:43:49;;;;;;;0.63;0.47;;;0.40;99.90;2.40;102312.00;;;;6207322;23;20189;-66
2024/01/20 19:46:15;;;;;;;4.80;3.30;;;0.40;99.90;2.70;102322.00;;;;6246994;23;20177;-66
2024/01/20 19:49:08;;;;;;;2.53;1.50;;;0.60;99.90;2.40;102323.00;;;;6247391;23;20589;-67